createdAt,value
2018-05-28T00:02:15.098Z,27.97
2018-05-28T00:04:42.564Z,28.30
2018-05-28T00:07:10.004Z,26.70
2018-05-28T00:09:37.440Z,30.73
2018-05-28T00:12:04.812Z,27.17
2018-05-28T00:14:32.234Z,27.23
2018-05-28T00:16:59.649Z,28.80
2018-05-28T00:19:27.051Z,28.33
2018-05-28T00:21:54.402Z,28.77
2018-05-28T00:24:21.945Z,33.43
2018-05-28T00:26:49.392Z,27.53
2018-05-28T00:29:16.965Z,30.57
2018-05-28T00:31:44.393Z,28.27
2018-05-28T00:34:11.795Z,27.30
2018-05-28T00:36:39.204Z,26.67
2018-05-28T00:39:06.637Z,25.90
2018-05-28T00:41:34.021Z,28.17
2018-05-28T00:44:01.503Z,29.07
2018-05-28T00:46:28.939Z,29.40
2018-05-28T00:48:56.381Z,31.67
2018-05-28T00:51:23.806Z,30.13
2018-05-28T00:53:51.235Z,26.90
2018-05-28T00:56:18.680Z,31.47
2018-05-28T00:58:46.141Z,29.17
2018-05-28T01:01:13.600Z,26.80
2018-05-28T01:03:41.049Z,28.30
2018-05-28T01:06:08.464Z,29.70
2018-05-28T01:08:35.833Z,32.10
2018-05-28T01:11:03.272Z,28.57
2018-05-28T01:13:30.671Z,30.93
2018-05-28T01:15:58.072Z,29.80
2018-05-28T01:18:25.433Z,32.30
2018-05-28T01:20:52.884Z,31.03
2018-05-28T01:23:20.291Z,30.20
2018-05-28T01:25:47.695Z,31.40
2018-05-28T01:28:15.090Z,30.93
2018-05-28T01:30:42.473Z,30.83
2018-05-28T01:33:09.887Z,31.80
2018-05-28T01:35:37.286Z,35.53
2018-05-28T01:38:04.722Z,29.33
2018-05-28T01:40:32.119Z,30.50
2018-05-28T01:42:59.519Z,29.17
2018-05-28T01:45:26.892Z,29.30
2018-05-28T01:47:54.332Z,30.17
2018-05-28T01:50:21.887Z,28.40
2018-05-28T01:52:49.290Z,29.20
2018-05-28T01:55:16.834Z,29.70
2018-05-28T01:57:44.228Z,34.33
2018-05-28T02:00:11.583Z,30.73
2018-05-28T02:02:38.980Z,30.17
2018-05-28T02:05:06.359Z,32.00
2018-05-28T02:07:33.817Z,29.97
2018-05-28T02:10:01.241Z,28.80
2018-05-28T02:12:28.611Z,32.07
2018-05-28T02:14:56.047Z,27.50
2018-05-28T02:17:23.443Z,30.40
2018-05-28T02:19:50.868Z,30.10
2018-05-28T02:22:18.454Z,28.90
2018-05-28T02:24:45.980Z,31.33
2018-05-28T02:27:13.368Z,31.67
2018-05-28T02:29:40.728Z,32.90
2018-05-28T02:32:08.249Z,32.83
2018-05-28T02:34:35.663Z,30.53
2018-05-28T02:37:03.024Z,34.53
2018-05-28T02:39:30.427Z,31.50
2018-05-28T02:41:57.908Z,30.10
2018-05-28T02:44:25.301Z,31.40
2018-05-28T02:46:52.660Z,32.57
2018-05-28T02:49:20.078Z,33.63
2018-05-28T02:51:47.460Z,31.03
2018-05-28T02:54:14.896Z,33.80
2018-05-28T02:56:42.335Z,33.63
2018-05-28T02:59:09.726Z,32.37
2018-05-28T03:01:37.117Z,33.73
2018-05-28T03:04:04.522Z,38.53
2018-05-28T03:06:31.939Z,33.20
2018-05-28T03:08:59.328Z,32.57
2018-05-28T03:11:26.779Z,31.90
2018-05-28T03:13:54.207Z,33.93
2018-05-28T03:16:21.606Z,32.43
2018-05-28T03:18:49.004Z,35.50
2018-05-28T03:21:16.442Z,34.23
2018-05-28T03:23:43.982Z,33.30
2018-05-28T03:26:11.383Z,33.07
2018-05-28T03:28:38.944Z,35.10
2018-05-28T03:31:06.330Z,32.50
2018-05-28T03:33:33.747Z,31.57
2018-05-28T03:36:01.110Z,33.87
2018-05-28T03:38:28.496Z,30.70
2018-05-28T03:40:55.879Z,29.57
2018-05-28T03:43:23.238Z,32.73
2018-05-28T03:45:50.631Z,32.90
2018-05-28T03:48:18.583Z,29.80
2018-05-28T03:50:45.973Z,35.53
2018-05-28T03:53:13.331Z,33.57
2018-05-28T03:55:40.715Z,32.77
2018-05-28T03:58:08.103Z,30.33
2018-05-28T04:00:41.458Z,34.27
2018-05-28T04:03:14.679Z,31.40
2018-05-28T04:05:48.039Z,29.67
2018-05-28T04:08:15.493Z,34.00
2018-05-28T04:10:42.944Z,30.97
2018-05-28T04:13:10.364Z,31.20
2018-05-28T04:15:37.730Z,33.60
2018-05-28T04:18:05.159Z,30.00
2018-05-28T04:20:32.603Z,32.00
2018-05-28T04:22:59.994Z,29.97
2018-05-28T04:25:27.378Z,32.67
2018-05-28T04:27:54.984Z,31.07
2018-05-28T04:30:22.389Z,30.67
2018-05-28T04:32:49.771Z,31.33
2018-05-28T04:35:17.222Z,33.63
2018-05-28T04:37:44.824Z,30.10
2018-05-28T04:40:12.180Z,30.90
2018-05-28T04:42:39.551Z,30.03
2018-05-28T04:45:06.939Z,33.07
2018-05-28T04:47:34.319Z,33.47
2018-05-28T04:50:01.727Z,30.13
2018-05-28T04:52:29.116Z,31.70
2018-05-28T04:54:56.678Z,30.93
2018-05-28T04:57:24.069Z,28.33
2018-05-28T04:59:51.500Z,30.60
2018-05-28T05:02:18.984Z,31.90
2018-05-28T05:04:46.389Z,33.73
2018-05-28T05:07:13.828Z,31.73
2018-05-28T05:09:41.225Z,29.30
2018-05-28T05:12:08.729Z,30.00
2018-05-28T05:14:36.958Z,31.60
2018-05-28T05:17:04.437Z,29.17
2018-05-28T05:19:32.021Z,29.23
2018-05-28T05:21:59.392Z,31.80
2018-05-28T05:24:26.807Z,26.60
2018-05-28T05:26:54.175Z,35.40
2018-05-28T05:29:21.590Z,27.90
2018-05-28T05:31:49.106Z,28.57
2018-05-28T05:34:16.554Z,31.20
2018-05-28T05:36:43.906Z,28.50
2018-05-28T05:39:11.447Z,34.27
2018-05-28T05:41:38.869Z,31.50
2018-05-28T05:44:06.244Z,33.20
2018-05-28T05:46:33.677Z,28.30
2018-05-28T05:49:01.094Z,29.00
2018-05-28T05:51:28.535Z,31.60
2018-05-28T05:53:55.987Z,30.93
2018-05-28T05:56:23.503Z,32.50
2018-05-28T05:58:50.901Z,28.87
2018-05-28T06:01:18.311Z,28.33
2018-05-28T06:03:45.696Z,30.93
2018-05-28T06:06:13.155Z,28.93
2018-05-28T06:08:40.525Z,27.03
2018-05-28T06:11:07.963Z,26.97
2018-05-28T06:13:35.389Z,26.83
2018-05-28T06:16:02.775Z,28.83
2018-05-28T06:18:30.176Z,25.83
2018-05-28T06:20:57.564Z,28.47
2018-05-28T06:23:24.996Z,28.53
2018-05-28T06:25:52.420Z,29.67
2018-05-28T06:28:19.822Z,29.43
2018-05-28T06:30:47.247Z,28.63
2018-05-28T06:33:14.602Z,26.53
2018-05-28T06:35:42.255Z,27.23
2018-05-28T06:38:09.647Z,24.93
2018-05-28T06:40:37.068Z,28.53
2018-05-28T06:43:04.480Z,24.83
2018-05-28T06:45:31.881Z,28.10
2018-05-28T06:47:59.488Z,30.87
2018-05-28T06:50:26.881Z,32.37
2018-05-28T06:52:54.238Z,31.33
2018-05-28T06:55:21.656Z,28.43
2018-05-28T06:57:49.044Z,33.77
2018-05-28T07:00:16.448Z,28.80
2018-05-28T07:02:44.050Z,27.50
2018-05-28T07:05:11.420Z,27.83
2018-05-28T07:07:38.906Z,27.10
2018-05-28T07:10:06.304Z,26.70
2018-05-28T07:12:33.735Z,30.13
2018-05-28T07:15:01.142Z,26.07
2018-05-28T07:17:28.528Z,25.83
2018-05-28T07:19:55.962Z,26.40
2018-05-28T07:22:23.364Z,25.30
2018-05-28T07:24:50.901Z,26.53
2018-05-28T07:27:18.360Z,27.83
2018-05-28T07:29:45.775Z,24.80
2018-05-28T07:32:13.225Z,24.87
2018-05-28T07:34:40.660Z,25.10
2018-05-28T07:37:08.072Z,24.87
2018-05-28T07:39:35.508Z,26.97
2018-05-28T07:42:02.901Z,24.00
2018-05-28T07:44:30.339Z,25.73
2018-05-28T07:46:57.761Z,22.90
2018-05-28T07:49:25.131Z,24.93
2018-05-28T07:51:52.548Z,24.63
2018-05-28T07:54:20.026Z,28.20
2018-05-28T07:56:47.496Z,26.17
2018-05-28T07:59:14.932Z,29.17
2018-05-28T08:01:42.480Z,28.90
2018-05-28T08:04:09.900Z,22.80
2018-05-28T08:06:38.191Z,29.50
2018-05-28T08:09:05.578Z,23.80
2018-05-28T08:11:32.967Z,25.43
2018-05-28T08:14:00.354Z,27.13
2018-05-28T08:16:27.725Z,24.23
2018-05-28T08:18:55.165Z,26.03
2018-05-28T08:21:22.595Z,23.27
2018-05-28T08:23:50.017Z,28.43
2018-05-28T08:26:17.619Z,25.90
2018-05-28T08:28:45.057Z,27.43
2018-05-28T08:31:12.628Z,23.53
2018-05-28T08:33:40.022Z,24.57
2018-05-28T08:36:07.444Z,23.83
2018-05-28T08:38:34.955Z,24.63
2018-05-28T08:41:02.367Z,24.17
2018-05-28T08:43:29.760Z,23.73
2018-05-28T08:45:57.138Z,23.87
2018-05-28T08:48:24.530Z,22.23
2018-05-28T08:50:51.991Z,23.30
2018-05-28T08:53:19.397Z,23.87
2018-05-28T08:55:46.779Z,30.67
2018-05-28T08:58:14.213Z,25.43
2018-05-28T09:00:41.673Z,22.73
2018-05-28T09:03:09.107Z,22.23
2018-05-28T09:05:36.519Z,23.37
2018-05-28T09:08:04.031Z,25.20
2018-05-28T09:10:31.402Z,25.80
2018-05-28T09:12:58.839Z,23.90
2018-05-28T09:15:26.235Z,23.27
2018-05-28T09:17:53.645Z,23.53
2018-05-28T09:20:21.029Z,25.70
2018-05-28T09:22:48.449Z,23.80
2018-05-28T09:25:15.847Z,24.70
2018-05-28T09:27:43.203Z,23.00
2018-05-28T09:30:10.688Z,24.60
2018-05-28T09:32:38.145Z,24.87
2018-05-28T09:35:05.536Z,21.40
2018-05-28T09:37:33.421Z,21.77
2018-05-28T09:40:00.841Z,22.77
2018-05-28T09:42:28.469Z,20.87
2018-05-28T09:44:55.830Z,19.80
2018-05-28T09:47:23.217Z,18.80
2018-05-28T09:49:50.635Z,21.40
2018-05-28T09:52:18.341Z,20.97
2018-05-28T09:54:45.734Z,24.77
2018-05-28T09:57:13.159Z,24.57
2018-05-28T09:59:40.650Z,17.50
2018-05-28T10:02:08.053Z,19.40
2018-05-28T10:04:35.479Z,19.00
2018-05-28T10:07:02.881Z,18.20
2018-05-28T10:09:30.272Z,20.13
2018-05-28T10:11:57.705Z,18.13
2018-05-28T10:14:25.359Z,17.50
2018-05-28T10:16:52.888Z,18.70
2018-05-28T10:19:20.456Z,17.47
2018-05-28T10:21:48.073Z,16.60
2018-05-28T10:24:15.507Z,16.07
2018-05-28T10:26:42.940Z,17.77
2018-05-28T10:29:10.314Z,22.63
2018-05-28T10:31:37.753Z,16.40
2018-05-28T10:34:05.185Z,18.77
2018-05-28T10:36:32.767Z,21.70
2018-05-28T10:39:00.141Z,16.47
2018-05-28T10:41:27.565Z,15.27
2018-05-28T10:43:54.966Z,16.03
2018-05-28T10:46:22.385Z,15.10
2018-05-28T10:48:49.789Z,13.20
2018-05-28T10:51:17.167Z,15.67
2018-05-28T10:53:44.559Z,14.20
2018-05-28T10:56:11.935Z,15.10
2018-05-28T10:58:39.487Z,15.37
2018-05-28T11:01:06.946Z,15.73
2018-05-28T11:03:34.321Z,14.97
2018-05-28T11:06:01.770Z,14.20
2018-05-28T11:08:29.159Z,13.63
